Jacksonville International Airport
KJAX : rendu visible

Aérodrome :











RETROUVEZ-NOUS SUR...

 
LOGIN :

S'inscrire | Disclaimer

   EN    FR    IT 

 









Légende :    VFR   VFR Marginal   IFR   IFR Intensif   IFR Très Intensif
Visi : 
Plafond : 
>= 8 km
>= 3000ft
5 à 8 km
1000 à 3000 ft
1500m à 5 km
500 à 1000 ft
800 à 1500m
200 à 500 ft
< 800m
< 200 ft
Symboles :   Orages  Brouillard  Fortes neiges  Fortes précipitations  Vent > 20 kt






- Altitude de l'aérodrome : 30 ft
- Code IATA : JAX


KJAX - Jacksonville International

DERNIER METAR :
  • 221956Z 04011KT 10SM FEW030 FEW250 14/06 A3035 RMK AO2 SLP279 T01440061

METARs EXPIRÉS :
  • 221856Z 02009KT 10SM FEW026 FEW035 SCT250 14/06 A3037 RMK AO2 SLP283 T01440061
  • 221756Z 05012KT 10SM FEW035 FEW250 14/06 A3039 RMK AO2 SLP290 T01390056 10139 20017 58012

TAF KJAX
Valide du 22 à 19h jusqu'au 23 à 18h UTC


221859Z 2219/2318 04013G20KT P6SM FEW025 FEW250
FM222200 03008KT P6SM FEW250
FM230100 01004KT P6SM FEW250
FM231400 04008KT P6SM SCT250



MET'MAP, la Météo Aéronautique d'un coup d'oeil ! - Copyright ORBIFLY Décembre 2007 - Disclaimer

ORBIFLY MET'MAP TEAM :

Programmation & Développement : Alexandra Zaïnal
Sur une idée originale de : Baudouin d'Aumeries
Assistance à la programmation : Marc-Olivier Méhu
Soutien technique & logistique : Manuel Goepfert

Contact : metmap@orbifly.com




SOURCES & CREDITS :

   NOAA       Earth
Advisory